Time;durP1;ratioP1;P1;durP2;ratioP2;P2;SDS_P1;SDS_P2;PMS_P1;PMS_P2;Temp;Humidity;BMP_temperature;BMP_pressure;BME280_temperature;BME280_humidity;BME280_pressure;Samples;Min_cycle;Max_cycle;Signal;HPM_P1;HPM_P2
2023/03/10 00:03:15;;;;;;;16.83;7.57;;;;;;;11.50;100.00;98836.56;31590639;28;20055;-90
2023/03/10 00:18:17;;;;;;;17.63;8.40;;;;;;;11.47;100.00;98830.09;31593496;28;20079;-89
2023/03/10 00:33:19;;;;;;;21.60;9.23;;;;;;;11.26;100.00;98815.47;31628313;28;20060;-83
2023/03/10 00:48:31;;;;;;;26.90;13.03;;;;;;;11.38;100.00;98842.91;31601555;28;20077;-87
2023/03/10 01:03:33;;;;;;;29.27;14.20;;;;;;;11.63;100.00;98831.72;31608237;28;20073;-84
2023/03/10 01:18:36;;;;;;;22.77;10.47;;;;;;;11.73;100.00;98800.59;31616302;28;20052;-89
2023/03/10 01:33:42;;;;;;;14.83;7.93;;;;;;;11.45;100.00;98815.44;31611021;28;20059;-84
2023/03/10 01:48:44;;;;;;;26.27;13.30;;;;;;;11.62;100.00;98824.78;31581488;28;20504;-84
2023/03/10 02:03:55;;;;;;;27.47;14.20;;;;;;;11.88;100.00;98825.94;31574330;28;20052;-84
2023/03/10 02:18:57;;;;;;;29.73;13.40;;;;;;;11.78;100.00;98838.06;31598322;28;20052;-83
2023/03/10 02:34:05;;;;;;;26.53;11.53;;;;;;;11.97;100.00;98859.78;31584893;28;20047;-88
2023/03/10 02:49:11;;;;;;;23.93;7.83;;;;;;;12.18;100.00;98829.63;31559982;28;20063;-84
2023/03/10 03:04:13;;;;;;;19.77;8.07;;;;;;;12.38;100.00;98856.31;31655295;28;20135;-86
2023/03/10 03:19:16;;;;;;;27.73;8.57;;;;;;;12.33;100.00;98859.66;31611165;28;20098;-86
2023/03/10 03:34:19;;;;;;;24.97;9.87;;;;;;;12.10;100.00;98847.50;31589252;28;20056;-84
2023/03/10 03:49:21;;;;;;;18.87;7.53;;;;;;;12.14;100.00;98864.41;31631656;28;20144;-84
2023/03/10 04:04:24;;;;;;;23.27;8.90;;;;;;;11.94;100.00;98877.75;31625001;28;20052;-88
2023/03/10 04:19:26;;;;;;;18.87;7.00;;;;;;;12.16;100.00;98889.19;31600162;28;20105;-87
2023/03/10 04:34:32;;;;;;;20.20;7.30;;;;;;;12.13;100.00;98897.50;31613623;28;20063;-88
2023/03/10 04:49:36;;;;;;;12.33;7.20;;;;;;;12.40;100.00;98904.84;31612348;28;20040;-86
2023/03/10 05:04:39;;;;;;;15.13;7.20;;;;;;;12.63;100.00;98901.41;31596965;28;20479;-88
2023/03/10 05:19:41;;;;;;;25.10;11.07;;;;;;;12.63;100.00;98917.75;31594188;28;20489;-88
2023/03/10 05:34:43;;;;;;;23.00;13.07;;;;;;;12.56;100.00;98937.88;31547203;28;20053;-87
2023/03/10 05:49:45;;;;;;;22.83;12.10;;;;;;;13.47;100.00;98947.56;31560340;28;20075;-89
2023/03/10 06:04:47;;;;;;;19.10;8.90;;;;;;;14.91;100.00;98947.81;31592301;28;20162;-87
2023/03/10 06:19:51;;;;;;;17.40;9.17;;;;;;;15.65;100.00;98981.13;31613274;28;20044;-87
2023/03/10 06:34:53;;;;;;;14.37;5.90;;;;;;;16.63;100.00;98994.81;31604052;28;20394;-88
2023/03/10 06:49:55;;;;;;;16.63;7.10;;;;;;;18.72;100.00;99013.19;31611773;28;20398;-90
2023/03/10 07:04:57;;;;;;;11.60;5.73;;;;;;;20.09;100.00;99020.09;31570423;28;20761;-79
2023/03/10 07:19:59;;;;;;;10.70;5.50;;;;;;;18.50;100.00;99032.41;31540637;28;20464;-82
2023/03/10 07:35:04;;;;;;;12.20;5.13;;;;;;;17.97;100.00;99045.00;31594736;28;20048;-80
2023/03/10 07:50:06;;;;;;;13.63;6.00;;;;;;;17.88;100.00;99054.22;31546458;28;20106;-81
2023/03/10 08:05:10;;;;;;;12.97;6.10;;;;;;;17.60;100.00;99069.78;31629520;28;20051;-90
2023/03/10 08:20:13;;;;;;;7.27;5.17;;;;;;;18.03;100.00;99084.97;31612117;28;20052;-89
2023/03/10 08:35:15;;;;;;;10.20;5.70;;;;;;;19.46;100.00;99088.91;31590581;28;20048;-86
2023/03/10 08:50:17;;;;;;;10.80;4.43;;;;;;;22.03;85.24;99093.47;31592762;28;20040;-83
2023/03/10 09:05:20;;;;;;;7.65;4.85;;;;;;;23.36;70.01;99099.06;31597889;28;20512;-84
2023/03/10 09:20:24;;;;;;;7.28;4.63;;;;;;;24.23;63.88;99123.38;31619930;28;20048;-82
2023/03/10 09:35:30;;;;;;;8.80;5.95;;;;;;;24.61;60.16;99113.47;31607791;28;20128;-81
2023/03/10 09:50:42;;;;;;;8.10;4.83;;;;;;;25.21;56.54;99118.16;31622674;28;20694;-83
2023/03/10 10:05:52;;;;;;;12.15;6.28;;;;;;;26.07;51.17;99097.41;31575839;28;20108;-82
2023/03/10 10:21:18;;;;;;;6.03;4.13;;;;;;;26.30;48.73;99089.19;31614594;28;20071;-81
2023/03/10 10:36:26;;;;;;;9.73;4.85;;;;;;;26.30;46.43;99094.00;31572989;28;20044;-83
2023/03/10 10:51:32;;;;;;;7.15;3.70;;;;;;;26.53;45.25;99094.81;31579381;28;20052;-84
2023/03/10 11:06:36;;;;;;;10.38;4.43;;;;;;;25.72;46.83;99087.06;31607173;28;20048;-84
2023/03/10 11:21:44;;;;;;;10.27;5.30;;;;;;;26.01;47.16;99099.59;31586560;28;20086;-84
2023/03/10 11:37:29;;;;;;;11.15;5.65;;;;;;;23.85;58.41;99103.50;31621966;28;20056;-88
2023/03/10 11:52:36;;;;;;;8.50;5.20;;;;;;;26.04;48.75;99114.47;31574414;28;20075;-84
2023/03/10 12:07:43;;;;;;;9.90;6.22;;;;;;;26.69;45.82;99124.16;31593044;28;20147;-82
2023/03/10 12:22:58;;;;;;;9.52;5.75;;;;;;;24.89;49.95;99142.63;31584877;28;20060;-83
2023/03/10 12:38:30;;;;;;;10.60;6.85;;;;;;;22.18;62.66;99131.75;31596272;28;20473;-81
2023/03/10 12:53:43;;;;;;;12.32;6.65;;;;;;;21.44;68.69;99137.28;31571729;28;20086;-83
2023/03/10 13:08:50;;;;;;;9.38;6.88;;;;;;;20.63;77.65;99144.34;31574947;28;20052;-81
2023/03/10 13:23:52;;;;;;;11.15;6.20;;;;;;;20.42;78.66;99127.44;31568648;28;20040;-83
2023/03/10 13:38:55;;;;;;;9.10;6.43;;;;;;;19.98;82.55;99139.34;31604374;28;20056;-84
2023/03/10 13:54:29;;;;;;;12.57;7.03;;;;;;;19.75;84.33;99137.91;31591600;28;20532;-83
2023/03/10 14:09:31;;;;;;;8.00;5.50;;;;;;;19.56;83.20;99136.97;31568591;28;20497;-85
2023/03/10 14:24:33;;;;;;;11.33;5.20;;;;;;;19.37;84.14;99142.19;31552691;28;20050;-86
2023/03/10 14:39:38;;;;;;;10.47;6.07;;;;;;;18.78;89.64;99153.41;31585776;28;20489;-82
2023/03/10 14:54:40;;;;;;;12.20;6.47;;;;;;;18.58;91.04;99174.34;31609809;28;20101;-82
2023/03/10 15:09:43;;;;;;;11.47;6.73;;;;;;;18.38;92.82;99188.25;31564351;28;20055;-82
2023/03/10 15:24:45;;;;;;;13.40;6.80;;;;;;;17.80;96.98;99220.63;31603112;28;20127;-83
2023/03/10 15:39:47;;;;;;;14.87;7.40;;;;;;;17.34;100.00;99243.44;31570664;28;20051;-81
2023/03/10 15:54:55;;;;;;;18.50;8.73;;;;;;;16.83;100.00;99254.34;31571407;28;20101;-87
2023/03/10 16:26:44;;;;;;;20.13;9.67;;;;;;;15.21;100.00;99293.69;31732479;28;20098;-93
2023/03/10 16:42:07;;;;;;;22.23;11.23;;;;;;;14.76;100.00;99313.19;31438514;28;20415;-90
2023/03/10 16:57:28;;;;;;;24.70;11.13;;;;;;;14.30;100.00;99310.69;31352238;28;20531;-88
2023/03/10 17:12:34;;;;;;;17.40;9.00;;;;;;;13.69;100.00;99318.16;31616431;28;20043;-89
2023/03/10 17:27:39;;;;;;;15.20;8.70;;;;;;;13.40;100.00;99304.28;31658017;28;20079;-89
2023/03/10 17:42:45;;;;;;;23.80;11.23;;;;;;;13.32;100.00;99306.56;31570947;22;20049;-80
2023/03/10 17:57:47;;;;;;;14.20;8.97;;;;;;;12.98;100.00;99321.22;31282927;28;20103;-78
2023/03/10 18:12:49;;;;;;;17.43;9.93;;;;;;;12.87;100.00;99329.81;31344651;28;20053;-76
2023/03/10 18:27:54;;;;;;;18.83;9.53;;;;;;;12.57;100.00;99328.69;31345693;28;20049;-74
2023/03/10 18:42:57;;;;;;;;;;;;;;;12.43;100.00;99337.44;31316754;28;20061;-75
2023/03/10 18:57:59;;;;;;;20.63;10.60;;;;;;;12.01;100.00;99334.41;31337811;28;19928;-76
2023/03/10 19:13:01;;;;;;;17.20;9.60;;;;;;;12.06;100.00;99335.75;31311996;28;20056;-77
2023/03/10 19:28:03;;;;;;;17.77;9.23;;;;;;;11.93;100.00;99323.03;31341968;28;20099;-80
2023/03/10 19:43:05;;;;;;;15.57;7.90;;;;;;;11.74;100.00;99329.53;31327323;28;20045;-76
2023/03/10 19:58:07;;;;;;;15.07;9.23;;;;;;;11.64;100.00;99327.97;31340661;28;20056;-76
2023/03/10 20:13:10;;;;;;;22.00;10.83;;;;;;;11.56;100.00;99319.31;31350296;28;20045;-75
2023/03/10 20:28:13;;;;;;;13.73;8.57;;;;;;;11.63;100.00;99331.88;31329681;28;20064;-78
2023/03/10 20:43:16;;;;;;;16.73;8.17;;;;;;;11.59;100.00;99299.38;31336322;28;20478;-77
2023/03/10 20:58:18;;;;;;;18.03;8.37;;;;;;;11.55;100.00;99292.59;31300242;28;20049;-79
2023/03/10 21:13:20;;;;;;;16.57;8.60;;;;;;;11.21;100.00;99302.31;31337324;28;20056;-79
2023/03/10 21:28:22;;;;;;;44.57;20.50;;;;;;;10.87;100.00;99299.59;31333931;28;20058;-77
2023/03/10 21:43:26;;;;;;;16.97;9.07;;;;;;;11.03;100.00;99285.88;31339626;28;20057;-78
2023/03/10 21:58:28;;;;;;;16.97;7.93;;;;;;;10.93;100.00;99270.69;31273764;28;20049;-80
2023/03/10 22:13:30;;;;;;;21.07;9.73;;;;;;;10.89;100.00;99249.09;31224339;28;20148;-78
2023/03/10 22:28:32;;;;;;;18.53;9.40;;;;;;;10.64;100.00;99243.75;31220203;28;20131;-81
2023/03/10 22:43:33;;;;;;;16.43;8.97;;;;;;;10.47;100.00;99240.44;31276061;28;20418;-82
2023/03/10 22:58:36;;;;;;;22.40;9.47;;;;;;;10.22;100.00;99237.78;31322048;28;20127;-83
2023/03/10 23:13:40;;;;;;;16.83;9.50;;;;;;;10.28;100.00;99222.47;31332357;28;20045;-81
2023/03/10 23:28:42;;;;;;;14.00;8.53;;;;;;;10.30;100.00;99209.22;31295934;28;20053;-82
2023/03/10 23:43:44;;;;;;;23.20;10.40;;;;;;;10.13;100.00;99194.28;31304465;28;20061;-82
2023/03/10 23:58:46;;;;;;;21.80;11.40;;;;;;;10.16;100.00;99187.94;31301140;28;20061;-83
